sensor_id;sensor_type;location;lat;lon;timestamp;temperature;humidity
54898;DHT22;40800;52.704;6.398;2023-03-23T00:01:11;13.30;99.90
54898;DHT22;40800;52.704;6.398;2023-03-23T00:03:39;13.10;99.90
54898;DHT22;40800;52.704;6.398;2023-03-23T00:06:05;12.40;99.90
54898;DHT22;40800;52.704;6.398;2023-03-23T00:08:37;12.30;99.90
54898;DHT22;40800;52.704;6.398;2023-03-23T00:11:13;13.30;99.90
54898;DHT22;40800;52.704;6.398;2023-03-23T00:13:41;12.50;99.90
54898;DHT22;40800;52.704;6.398;2023-03-23T00:16:07;12.80;99.90
54898;DHT22;40800;52.704;6.398;2023-03-23T00:18:50;12.40;99.90
54898;DHT22;40800;52.704;6.398;2023-03-23T00:21:20;12.40;99.90
54898;DHT22;40800;52.704;6.398;2023-03-23T00:23:45;12.60;99.90
54898;DHT22;40800;52.704;6.398;2023-03-23T00:26:11;13.10;99.90
54898;DHT22;40800;52.704;6.398;2023-03-23T00:28:37;12.30;99.90
54898;DHT22;40800;52.704;6.398;2023-03-23T00:31:06;12.40;99.90
54898;DHT22;40800;52.704;6.398;2023-03-23T00:33:34;13.20;99.90
54898;DHT22;40800;52.704;6.398;2023-03-23T00:36:04;12.40;99.90
54898;DHT22;40800;52.704;6.398;2023-03-23T00:38:31;12.70;99.90
54898;DHT22;40800;52.704;6.398;2023-03-23T00:40:57;12.50;99.90
54898;DHT22;40800;52.704;6.398;2023-03-23T00:43:24;12.40;99.90
54898;DHT22;40800;52.704;6.398;2023-03-23T00:45:50;13.10;99.90
54898;DHT22;40800;52.704;6.398;2023-03-23T00:48:21;12.60;99.90
54898;DHT22;40800;52.704;6.398;2023-03-23T00:50:47;12.80;99.90
54898;DHT22;40800;52.704;6.398;2023-03-23T00:53:15;12.50;99.90
54898;DHT22;40800;52.704;6.398;2023-03-23T00:55:42;12.50;99.90
54898;DHT22;40800;52.704;6.398;2023-03-23T00:58:08;12.60;99.90
54898;DHT22;40800;52.704;6.398;2023-03-23T01:00:34;12.70;99.90
54898;DHT22;40800;52.704;6.398;2023-03-23T01:02:59;12.50;99.90
54898;DHT22;40800;52.704;6.398;2023-03-23T01:05:25;13.00;99.90
54898;DHT22;40800;52.704;6.398;2023-03-23T01:08:00;12.70;99.90
54898;DHT22;40800;52.704;6.398;2023-03-23T01:10:27;12.70;99.90
54898;DHT22;40800;52.704;6.398;2023-03-23T01:12:52;13.00;99.90
54898;DHT22;40800;52.704;6.398;2023-03-23T01:15:19;12.90;99.90
54898;DHT22;40800;52.704;6.398;2023-03-23T01:17:45;12.70;99.90
54898;DHT22;40800;52.704;6.398;2023-03-23T01:20:12;12.60;99.90
54898;DHT22;40800;52.704;6.398;2023-03-23T01:22:39;12.60;99.90
54898;DHT22;40800;52.704;6.398;2023-03-23T01:25:06;13.00;99.90
54898;DHT22;40800;52.704;6.398;2023-03-23T01:27:32;12.90;99.90
54898;DHT22;40800;52.704;6.398;2023-03-23T01:29:58;12.80;99.90
54898;DHT22;40800;52.704;6.398;2023-03-23T01:32:23;13.00;99.90
54898;DHT22;40800;52.704;6.398;2023-03-23T01:34:49;12.80;99.90
54898;DHT22;40800;52.704;6.398;2023-03-23T01:37:14;12.80;99.90
54898;DHT22;40800;52.704;6.398;2023-03-23T01:39:41;13.10;99.90
54898;DHT22;40800;52.704;6.398;2023-03-23T01:42:08;13.00;99.90
54898;DHT22;40800;52.704;6.398;2023-03-23T01:47:00;13.00;99.90
54898;DHT22;40800;52.704;6.398;2023-03-23T01:49:31;13.00;99.90
54898;DHT22;40800;52.704;6.398;2023-03-23T01:52:04;13.00;99.90
54898;DHT22;40800;52.704;6.398;2023-03-23T01:54:31;13.00;99.90
54898;DHT22;40800;52.704;6.398;2023-03-23T01:57:07;12.90;99.90
54898;DHT22;40800;52.704;6.398;2023-03-23T01:59:36;13.10;99.90
54898;DHT22;40800;52.704;6.398;2023-03-23T02:02:03;12.70;99.90
54898;DHT22;40800;52.704;6.398;2023-03-23T02:04:30;12.90;99.90
54898;DHT22;40800;52.704;6.398;2023-03-23T02:06:57;12.90;99.90
54898;DHT22;40800;52.704;6.398;2023-03-23T02:09:24;13.00;99.90
54898;DHT22;40800;52.704;6.398;2023-03-23T02:11:51;13.00;99.90
54898;DHT22;40800;52.704;6.398;2023-03-23T02:14:18;12.70;99.90
54898;DHT22;40800;52.704;6.398;2023-03-23T02:16:58;12.80;99.90
54898;DHT22;40800;52.704;6.398;2023-03-23T02:19:55;12.70;99.90
54898;DHT22;40800;52.704;6.398;2023-03-23T02:25:34;13.00;99.90
54898;DHT22;40800;52.704;6.398;2023-03-23T02:35:44;12.80;99.90
54898;DHT22;40800;52.704;6.398;2023-03-23T02:38:19;12.60;99.90
54898;DHT22;40800;52.704;6.398;2023-03-23T02:40:48;12.70;99.90
54898;DHT22;40800;52.704;6.398;2023-03-23T02:43:17;12.80;99.90
54898;DHT22;40800;52.704;6.398;2023-03-23T02:45:45;12.80;99.90
54898;DHT22;40800;52.704;6.398;2023-03-23T02:48:13;12.80;99.90
54898;DHT22;40800;52.704;6.398;2023-03-23T02:50:44;12.60;99.90
54898;DHT22;40800;52.704;6.398;2023-03-23T02:53:12;12.60;99.90
54898;DHT22;40800;52.704;6.398;2023-03-23T02:55:41;12.70;99.90
54898;DHT22;40800;52.704;6.398;2023-03-23T02:58:09;12.70;99.90
54898;DHT22;40800;52.704;6.398;2023-03-23T03:00:35;12.90;99.90
54898;DHT22;40800;52.704;6.398;2023-03-23T03:03:01;12.90;99.90
54898;DHT22;40800;52.704;6.398;2023-03-23T03:08:18;12.90;99.90
54898;DHT22;40800;52.704;6.398;2023-03-23T03:11:07;12.60;99.90
54898;DHT22;40800;52.704;6.398;2023-03-23T03:21:27;12.90;99.90
54898;DHT22;40800;52.704;6.398;2023-03-23T03:23:56;12.70;99.90
54898;DHT22;40800;52.704;6.398;2023-03-23T03:26:25;12.60;99.90
54898;DHT22;40800;52.704;6.398;2023-03-23T03:28:55;12.80;99.90
54898;DHT22;40800;52.704;6.398;2023-03-23T03:31:26;12.60;99.90
54898;DHT22;40800;52.704;6.398;2023-03-23T03:33:53;12.60;99.90
54898;DHT22;40800;52.704;6.398;2023-03-23T03:36:24;12.80;99.90
54898;DHT22;40800;52.704;6.398;2023-03-23T03:38:51;13.00;99.90
54898;DHT22;40800;52.704;6.398;2023-03-23T03:41:18;12.80;99.90
54898;DHT22;40800;52.704;6.398;2023-03-23T03:43:44;12.80;99.90
54898;DHT22;40800;52.704;6.398;2023-03-23T03:46:10;12.70;99.90
54898;DHT22;40800;52.704;6.398;2023-03-23T03:48:36;13.00;99.90
54898;DHT22;40800;52.704;6.398;2023-03-23T03:51:04;12.90;99.90
54898;DHT22;40800;52.704;6.398;2023-03-23T03:53:32;12.70;99.90
54898;DHT22;40800;52.704;6.398;2023-03-23T03:55:57;12.80;99.90
54898;DHT22;40800;52.704;6.398;2023-03-23T03:58:26;12.70;99.90
54898;DHT22;40800;52.704;6.398;2023-03-23T04:01:00;12.90;99.90
54898;DHT22;40800;52.704;6.398;2023-03-23T04:03:27;12.80;99.90
54898;DHT22;40800;52.704;6.398;2023-03-23T04:05:54;12.70;99.90
54898;DHT22;40800;52.704;6.398;2023-03-23T04:08:22;13.10;99.90
54898;DHT22;40800;52.704;6.398;2023-03-23T04:10:48;13.00;99.90
54898;DHT22;40800;52.704;6.398;2023-03-23T04:13:14;13.10;99.90
54898;DHT22;40800;52.704;6.398;2023-03-23T04:15:40;13.20;99.90
54898;DHT22;40800;52.704;6.398;2023-03-23T04:18:06;13.10;99.90
54898;DHT22;40800;52.704;6.398;2023-03-23T04:20:32;12.80;99.90
54898;DHT22;40800;52.704;6.398;2023-03-23T04:23:00;13.10;99.90
54898;DHT22;40800;52.704;6.398;2023-03-23T04:25:27;13.20;99.90
54898;DHT22;40800;52.704;6.398;2023-03-23T04:27:53;13.10;99.90
54898;DHT22;40800;52.704;6.398;2023-03-23T04:30:24;13.10;99.90
54898;DHT22;40800;52.704;6.398;2023-03-23T04:32:51;12.70;99.90
54898;DHT22;40800;52.704;6.398;2023-03-23T04:35:18;12.70;99.90
54898;DHT22;40800;52.704;6.398;2023-03-23T04:37:45;13.10;99.90
54898;DHT22;40800;52.704;6.398;2023-03-23T04:40:11;12.90;99.90
54898;DHT22;40800;52.704;6.398;2023-03-23T04:42:40;13.20;99.90
54898;DHT22;40800;52.704;6.398;2023-03-23T04:45:07;12.80;99.90
54898;DHT22;40800;52.704;6.398;2023-03-23T04:47:35;13.20;99.90
54898;DHT22;40800;52.704;6.398;2023-03-23T04:50:07;13.10;99.90
54898;DHT22;40800;52.704;6.398;2023-03-23T04:52:33;13.10;99.90
54898;DHT22;40800;52.704;6.398;2023-03-23T04:54:59;13.10;99.90
54898;DHT22;40800;52.704;6.398;2023-03-23T04:57:24;12.80;99.90
54898;DHT22;40800;52.704;6.398;2023-03-23T04:59:53;12.50;99.90
54898;DHT22;40800;52.704;6.398;2023-03-23T05:02:19;13.00;99.90
54898;DHT22;40800;52.704;6.398;2023-03-23T05:04:45;12.40;99.90
54898;DHT22;40800;52.704;6.398;2023-03-23T05:07:11;12.90;99.90
54898;DHT22;40800;52.704;6.398;2023-03-23T05:09:37;12.70;99.90
54898;DHT22;40800;52.704;6.398;2023-03-23T05:12:07;12.30;99.90
54898;DHT22;40800;52.704;6.398;2023-03-23T05:14:33;12.90;99.90
54898;DHT22;40800;52.704;6.398;2023-03-23T05:16:59;12.10;99.90
54898;DHT22;40800;52.704;6.398;2023-03-23T05:19:24;12.80;99.90
54898;DHT22;40800;52.704;6.398;2023-03-23T05:21:50;12.00;99.90
54898;DHT22;40800;52.704;6.398;2023-03-23T05:24:15;12.00;99.90
54898;DHT22;40800;52.704;6.398;2023-03-23T05:26:41;12.60;99.90
54898;DHT22;40800;52.704;6.398;2023-03-23T05:29:06;11.90;99.90
54898;DHT22;40800;52.704;6.398;2023-03-23T05:31:32;12.60;99.90
54898;DHT22;40800;52.704;6.398;2023-03-23T05:33:57;12.70;99.90
54898;DHT22;40800;52.704;6.398;2023-03-23T05:36:23;12.00;99.90
54898;DHT22;40800;52.704;6.398;2023-03-23T05:38:52;12.00;99.90
54898;DHT22;40800;52.704;6.398;2023-03-23T05:41:18;12.60;99.90
54898;DHT22;40800;52.704;6.398;2023-03-23T05:43:43;12.50;99.90
54898;DHT22;40800;52.704;6.398;2023-03-23T05:46:09;12.20;99.90
54898;DHT22;40800;52.704;6.398;2023-03-23T05:48:34;12.70;99.90
54898;DHT22;40800;52.704;6.398;2023-03-23T05:51:00;12.00;99.90
54898;DHT22;40800;52.704;6.398;2023-03-23T05:53:26;12.10;99.90
54898;DHT22;40800;52.704;6.398;2023-03-23T05:55:52;12.10;99.90
54898;DHT22;40800;52.704;6.398;2023-03-23T05:58:18;12.40;99.90
54898;DHT22;40800;52.704;6.398;2023-03-23T06:00:44;12.30;99.90
54898;DHT22;40800;52.704;6.398;2023-03-23T06:03:10;12.10;99.90
54898;DHT22;40800;52.704;6.398;2023-03-23T06:05:42;12.30;99.90
54898;DHT22;40800;52.704;6.398;2023-03-23T06:08:09;12.30;99.90
54898;DHT22;40800;52.704;6.398;2023-03-23T06:10:35;11.90;99.90
54898;DHT22;40800;52.704;6.398;2023-03-23T06:13:02;12.30;99.90
54898;DHT22;40800;52.704;6.398;2023-03-23T06:15:28;11.80;99.90
54898;DHT22;40800;52.704;6.398;2023-03-23T06:17:58;12.50;99.90
54898;DHT22;40800;52.704;6.398;2023-03-23T06:20:24;12.40;99.90
54898;DHT22;40800;52.704;6.398;2023-03-23T06:22:50;11.90;99.90
54898;DHT22;40800;52.704;6.398;2023-03-23T06:25:16;12.40;99.90
54898;DHT22;40800;52.704;6.398;2023-03-23T06:27:41;12.50;99.90
54898;DHT22;40800;52.704;6.398;2023-03-23T06:30:07;12.50;99.90
54898;DHT22;40800;52.704;6.398;2023-03-23T06:32:33;11.80;99.90
54898;DHT22;40800;52.704;6.398;2023-03-23T06:34:59;12.40;99.90
54898;DHT22;40800;52.704;6.398;2023-03-23T06:37:24;12.40;99.90
54898;DHT22;40800;52.704;6.398;2023-03-23T06:39:53;12.30;99.90
54898;DHT22;40800;52.704;6.398;2023-03-23T06:42:19;12.20;99.90
54898;DHT22;40800;52.704;6.398;2023-03-23T06:44:45;12.50;99.90
54898;DHT22;40800;52.704;6.398;2023-03-23T06:47:11;11.80;99.90
54898;DHT22;40800;52.704;6.398;2023-03-23T06:49:36;11.90;99.90
54898;DHT22;40800;52.704;6.398;2023-03-23T06:52:02;12.30;99.90
54898;DHT22;40800;52.704;6.398;2023-03-23T06:54:29;12.50;99.90
54898;DHT22;40800;52.704;6.398;2023-03-23T06:56:55;12.50;99.90
54898;DHT22;40800;52.704;6.398;2023-03-23T06:59:21;12.10;99.90
54898;DHT22;40800;52.704;6.398;2023-03-23T07:01:48;11.90;99.90
54898;DHT22;40800;52.704;6.398;2023-03-23T07:04:14;12.00;99.90
54898;DHT22;40800;52.704;6.398;2023-03-23T07:06:41;11.90;99.90
54898;DHT22;40800;52.704;6.398;2023-03-23T07:09:06;12.00;99.90
54898;DHT22;40800;52.704;6.398;2023-03-23T07:11:32;12.10;99.90
54898;DHT22;40800;52.704;6.398;2023-03-23T07:13:58;12.60;99.90
54898;DHT22;40800;52.704;6.398;2023-03-23T07:16:24;12.70;99.90
54898;DHT22;40800;52.704;6.398;2023-03-23T07:18:50;12.00;99.90
54898;DHT22;40800;52.704;6.398;2023-03-23T07:21:15;12.70;99.90
54898;DHT22;40800;52.704;6.398;2023-03-23T07:23:41;12.70;99.90
54898;DHT22;40800;52.704;6.398;2023-03-23T07:26:07;12.20;99.90
54898;DHT22;40800;52.704;6.398;2023-03-23T07:28:33;12.60;99.90
54898;DHT22;40800;52.704;6.398;2023-03-23T07:30:58;12.60;99.90
54898;DHT22;40800;52.704;6.398;2023-03-23T07:33:24;12.20;99.90
54898;DHT22;40800;52.704;6.398;2023-03-23T07:35:50;12.60;99.90
54898;DHT22;40800;52.704;6.398;2023-03-23T07:38:16;12.50;99.90
54898;DHT22;40800;52.704;6.398;2023-03-23T07:40:41;12.80;99.90
54898;DHT22;40800;52.704;6.398;2023-03-23T07:43:07;12.70;99.90
54898;DHT22;40800;52.704;6.398;2023-03-23T07:45:33;12.70;99.90
54898;DHT22;40800;52.704;6.398;2023-03-23T07:47:59;12.80;99.90
54898;DHT22;40800;52.704;6.398;2023-03-23T07:50:25;12.70;99.90
54898;DHT22;40800;52.704;6.398;2023-03-23T07:52:54;12.70;99.90
54898;DHT22;40800;52.704;6.398;2023-03-23T07:55:19;12.90;99.90
54898;DHT22;40800;52.704;6.398;2023-03-23T07:57:46;13.00;99.90
54898;DHT22;40800;52.704;6.398;2023-03-23T08:00:12;12.80;99.90
54898;DHT22;40800;52.704;6.398;2023-03-23T08:02:47;12.70;99.90
54898;DHT22;40800;52.704;6.398;2023-03-23T08:05:14;12.70;99.90
54898;DHT22;40800;52.704;6.398;2023-03-23T08:07:41;12.70;99.90
54898;DHT22;40800;52.704;6.398;2023-03-23T08:10:07;12.70;99.90
54898;DHT22;40800;52.704;6.398;2023-03-23T08:12:37;12.80;99.90
54898;DHT22;40800;52.704;6.398;2023-03-23T08:15:07;12.60;99.90
54898;DHT22;40800;52.704;6.398;2023-03-23T08:17:33;12.90;99.90
54898;DHT22;40800;52.704;6.398;2023-03-23T08:20:00;13.00;99.90
54898;DHT22;40800;52.704;6.398;2023-03-23T08:22:25;12.80;99.90
54898;DHT22;40800;52.704;6.398;2023-03-23T08:24:51;12.80;99.90
54898;DHT22;40800;52.704;6.398;2023-03-23T08:27:18;13.00;99.90
54898;DHT22;40800;52.704;6.398;2023-03-23T08:29:46;12.90;99.90
54898;DHT22;40800;52.704;6.398;2023-03-23T08:32:13;13.00;99.90
54898;DHT22;40800;52.704;6.398;2023-03-23T08:34:38;12.60;99.90
54898;DHT22;40800;52.704;6.398;2023-03-23T08:37:04;12.60;99.90
54898;DHT22;40800;52.704;6.398;2023-03-23T08:39:30;12.80;99.90
54898;DHT22;40800;52.704;6.398;2023-03-23T08:41:57;12.60;99.90
54898;DHT22;40800;52.704;6.398;2023-03-23T08:44:22;13.10;99.90
54898;DHT22;40800;52.704;6.398;2023-03-23T08:46:48;13.00;99.90
54898;DHT22;40800;52.704;6.398;2023-03-23T08:49:15;13.10;99.90
54898;DHT22;40800;52.704;6.398;2023-03-23T08:51:40;13.10;99.90
54898;DHT22;40800;52.704;6.398;2023-03-23T08:54:07;12.80;99.90
54898;DHT22;40800;52.704;6.398;2023-03-23T08:56:32;13.10;99.90
54898;DHT22;40800;52.704;6.398;2023-03-23T08:58:58;13.10;99.90
54898;DHT22;40800;52.704;6.398;2023-03-23T09:01:24;12.80;99.90
54898;DHT22;40800;52.704;6.398;2023-03-23T09:03:49;13.10;99.90
54898;DHT22;40800;52.704;6.398;2023-03-23T09:06:15;13.20;99.90
54898;DHT22;40800;52.704;6.398;2023-03-23T09:08:41;12.90;99.90
54898;DHT22;40800;52.704;6.398;2023-03-23T09:11:08;13.00;99.90
54898;DHT22;40800;52.704;6.398;2023-03-23T09:13:35;13.00;99.90
54898;DHT22;40800;52.704;6.398;2023-03-23T09:16:01;13.00;99.90
54898;DHT22;40800;52.704;6.398;2023-03-23T09:18:27;13.30;99.90
54898;DHT22;40800;52.704;6.398;2023-03-23T09:20:54;13.00;99.90
54898;DHT22;40800;52.704;6.398;2023-03-23T09:23:20;13.20;99.90
54898;DHT22;40800;52.704;6.398;2023-03-23T09:25:49;13.20;99.90
54898;DHT22;40800;52.704;6.398;2023-03-23T09:28:16;13.20;99.90
54898;DHT22;40800;52.704;6.398;2023-03-23T09:30:42;13.40;99.90
54898;DHT22;40800;52.704;6.398;2023-03-23T09:33:09;13.40;99.90
54898;DHT22;40800;52.704;6.398;2023-03-23T09:35:36;13.60;99.90
54898;DHT22;40800;52.704;6.398;2023-03-23T09:38:03;13.60;99.90
54898;DHT22;40800;52.704;6.398;2023-03-23T09:40:35;13.70;99.90
54898;DHT22;40800;52.704;6.398;2023-03-23T09:43:13;13.70;99.90
54898;DHT22;40800;52.704;6.398;2023-03-23T09:45:49;13.80;99.90
54898;DHT22;40800;52.704;6.398;2023-03-23T09:48:44;13.90;99.90
54898;DHT22;40800;52.704;6.398;2023-03-23T09:53:55;14.00;99.90
54898;DHT22;40800;52.704;6.398;2023-03-23T09:56:30;13.90;99.90
54898;DHT22;40800;52.704;6.398;2023-03-23T10:01:45;13.90;99.90
54898;DHT22;40800;52.704;6.398;2023-03-23T10:04:15;13.90;99.90
54898;DHT22;40800;52.704;6.398;2023-03-23T10:06:45;13.80;99.90
54898;DHT22;40800;52.704;6.398;2023-03-23T10:09:15;13.60;99.90
54898;DHT22;40800;52.704;6.398;2023-03-23T10:12:02;13.70;99.90
54898;DHT22;40800;52.704;6.398;2023-03-23T10:15:02;13.90;99.90
54898;DHT22;40800;52.704;6.398;2023-03-23T10:17:33;13.90;99.90
54898;DHT22;40800;52.704;6.398;2023-03-23T10:22:55;14.30;99.90
54898;DHT22;40800;52.704;6.398;2023-03-23T10:25:28;14.50;99.90
54898;DHT22;40800;52.704;6.398;2023-03-23T10:28:18;14.60;99.90
54898;DHT22;40800;52.704;6.398;2023-03-23T10:30:48;14.40;99.90
54898;DHT22;40800;52.704;6.398;2023-03-23T10:33:30;14.60;99.90
54898;DHT22;40800;52.704;6.398;2023-03-23T10:38:42;15.20;99.90
54898;DHT22;40800;52.704;6.398;2023-03-23T10:41:14;15.20;99.90
54898;DHT22;40800;52.704;6.398;2023-03-23T10:43:41;15.10;99.90
54898;DHT22;40800;52.704;6.398;2023-03-23T10:48:52;14.70;99.90
54898;DHT22;40800;52.704;6.398;2023-03-23T10:51:23;14.80;99.90
54898;DHT22;40800;52.704;6.398;2023-03-23T10:53:55;15.00;99.90
54898;DHT22;40800;52.704;6.398;2023-03-23T10:58:47;15.40;99.90
54898;DHT22;40800;52.704;6.398;2023-03-23T11:01:13;15.40;99.90
54898;DHT22;40800;52.704;6.398;2023-03-23T11:06:08;14.90;99.90
54898;DHT22;40800;52.704;6.398;2023-03-23T11:08:53;14.70;99.90
54898;DHT22;40800;52.704;6.398;2023-03-23T11:11:20;14.50;99.90
54898;DHT22;40800;52.704;6.398;2023-03-23T11:13:55;14.60;99.90
54898;DHT22;40800;52.704;6.398;2023-03-23T11:16:29;14.70;99.90
54898;DHT22;40800;52.704;6.398;2023-03-23T11:19:00;14.70;99.90
54898;DHT22;40800;52.704;6.398;2023-03-23T11:21:37;14.70;99.90
54898;DHT22;40800;52.704;6.398;2023-03-23T11:24:05;14.60;99.90
54898;DHT22;40800;52.704;6.398;2023-03-23T11:26:31;14.80;99.90
